sensor_id;sensor_type;location;lat;lon;timestamp;P1;durP1;ratioP1;P2;durP2;ratioP2
9042;SDS011;4556;49.150;8.808;2022-08-02T00:00:07;4.70;;;2.03;;
9042;SDS011;4556;49.150;8.808;2022-08-02T00:02:35;2.77;;;2.20;;
9042;SDS011;4556;49.150;8.808;2022-08-02T00:05:04;3.23;;;2.33;;
9042;SDS011;4556;49.150;8.808;2022-08-02T00:07:31;2.77;;;2.23;;
9042;SDS011;4556;49.150;8.808;2022-08-02T00:09:59;3.20;;;2.43;;
9042;SDS011;4556;49.150;8.808;2022-08-02T00:12:26;3.77;;;2.23;;
9042;SDS011;4556;49.150;8.808;2022-08-02T00:14:53;3.30;;;2.13;;
9042;SDS011;4556;49.150;8.808;2022-08-02T00:17:20;2.50;;;2.20;;
9042;SDS011;4556;49.150;8.808;2022-08-02T00:19:48;2.73;;;2.27;;
9042;SDS011;4556;49.150;8.808;2022-08-02T00:22:16;2.67;;;2.20;;
9042;SDS011;4556;49.150;8.808;2022-08-02T00:24:43;2.50;;;2.27;;
9042;SDS011;4556;49.150;8.808;2022-08-02T00:27:11;3.20;;;2.53;;
9042;SDS011;4556;49.150;8.808;2022-08-02T00:29:38;2.80;;;2.30;;
9042;SDS011;4556;49.150;8.808;2022-08-02T00:32:05;2.97;;;2.43;;
9042;SDS011;4556;49.150;8.808;2022-08-02T00:34:32;3.93;;;2.57;;
9042;SDS011;4556;49.150;8.808;2022-08-02T00:36:59;3.00;;;2.70;;
9042;SDS011;4556;49.150;8.808;2022-08-02T00:39:35;5.07;;;3.07;;
9042;SDS011;4556;49.150;8.808;2022-08-02T00:42:02;2.97;;;2.67;;
9042;SDS011;4556;49.150;8.808;2022-08-02T00:44:30;3.63;;;2.93;;
9042;SDS011;4556;49.150;8.808;2022-08-02T00:46:57;5.43;;;3.10;;
9042;SDS011;4556;49.150;8.808;2022-08-02T00:49:24;4.43;;;3.00;;
9042;SDS011;4556;49.150;8.808;2022-08-02T00:51:51;3.33;;;3.03;;
9042;SDS011;4556;49.150;8.808;2022-08-02T00:54:18;3.80;;;2.83;;
9042;SDS011;4556;49.150;8.808;2022-08-02T00:56:47;2.80;;;2.50;;
9042;SDS011;4556;49.150;8.808;2022-08-02T00:59:14;3.13;;;2.50;;
9042;SDS011;4556;49.150;8.808;2022-08-02T01:01:42;4.33;;;3.00;;
9042;SDS011;4556;49.150;8.808;2022-08-02T01:04:12;5.50;;;3.30;;
9042;SDS011;4556;49.150;8.808;2022-08-02T01:06:40;3.27;;;2.60;;
9042;SDS011;4556;49.150;8.808;2022-08-02T01:09:08;5.07;;;2.83;;
9042;SDS011;4556;49.150;8.808;2022-08-02T01:11:35;5.03;;;3.00;;
9042;SDS011;4556;49.150;8.808;2022-08-02T01:14:06;3.33;;;2.93;;
9042;SDS011;4556;49.150;8.808;2022-08-02T01:16:37;3.87;;;2.87;;
9042;SDS011;4556;49.150;8.808;2022-08-02T01:19:11;3.80;;;2.73;;
9042;SDS011;4556;49.150;8.808;2022-08-02T01:21:53;2.80;;;2.60;;
9042;SDS011;4556;49.150;8.808;2022-08-02T01:24:44;6.70;;;2.80;;
9042;SDS011;4556;49.150;8.808;2022-08-02T01:27:28;3.60;;;3.13;;
9042;SDS011;4556;49.150;8.808;2022-08-02T01:30:04;3.23;;;2.77;;
9042;SDS011;4556;49.150;8.808;2022-08-02T01:32:34;5.43;;;2.60;;
9042;SDS011;4556;49.150;8.808;2022-08-02T01:35:06;2.87;;;2.60;;
9042;SDS011;4556;49.150;8.808;2022-08-02T01:37:38;3.43;;;2.70;;
9042;SDS011;4556;49.150;8.808;2022-08-02T01:40:11;2.33;;;2.13;;
9042;SDS011;4556;49.150;8.808;2022-08-02T01:42:43;4.80;;;2.47;;
9042;SDS011;4556;49.150;8.808;2022-08-02T01:45:14;5.80;;;2.77;;
9042;SDS011;4556;49.150;8.808;2022-08-02T01:47:43;4.43;;;2.37;;
9042;SDS011;4556;49.150;8.808;2022-08-02T01:50:13;5.07;;;2.87;;
9042;SDS011;4556;49.150;8.808;2022-08-02T01:52:45;4.23;;;3.03;;
9042;SDS011;4556;49.150;8.808;2022-08-02T01:55:17;6.37;;;3.27;;
9042;SDS011;4556;49.150;8.808;2022-08-02T01:57:48;4.50;;;2.43;;
9042;SDS011;4556;49.150;8.808;2022-08-02T02:00:20;4.33;;;2.80;;
9042;SDS011;4556;49.150;8.808;2022-08-02T02:02:49;5.73;;;3.17;;
9042;SDS011;4556;49.150;8.808;2022-08-02T02:05:20;3.57;;;2.80;;
9042;SDS011;4556;49.150;8.808;2022-08-02T02:07:50;5.20;;;2.67;;
9042;SDS011;4556;49.150;8.808;2022-08-02T02:10:20;4.30;;;2.50;;
9042;SDS011;4556;49.150;8.808;2022-08-02T02:12:51;2.63;;;2.43;;
9042;SDS011;4556;49.150;8.808;2022-08-02T02:15:22;2.87;;;2.60;;
9042;SDS011;4556;49.150;8.808;2022-08-02T02:17:51;4.67;;;2.77;;
9042;SDS011;4556;49.150;8.808;2022-08-02T02:20:19;3.90;;;2.80;;
9042;SDS011;4556;49.150;8.808;2022-08-02T02:22:47;3.20;;;2.70;;
9042;SDS011;4556;49.150;8.808;2022-08-02T02:25:15;3.70;;;2.93;;
9042;SDS011;4556;49.150;8.808;2022-08-02T02:27:45;4.00;;;2.83;;
9042;SDS011;4556;49.150;8.808;2022-08-02T02:30:18;4.57;;;3.10;;
9042;SDS011;4556;49.150;8.808;2022-08-02T02:32:48;3.37;;;3.07;;
9042;SDS011;4556;49.150;8.808;2022-08-02T02:35:18;8.90;;;3.40;;
9042;SDS011;4556;49.150;8.808;2022-08-02T02:37:47;3.77;;;3.43;;
9042;SDS011;4556;49.150;8.808;2022-08-02T02:40:16;4.63;;;3.67;;
9042;SDS011;4556;49.150;8.808;2022-08-02T02:42:45;4.77;;;3.60;;
9042;SDS011;4556;49.150;8.808;2022-08-02T02:45:14;4.00;;;3.50;;
9042;SDS011;4556;49.150;8.808;2022-08-02T02:47:42;5.57;;;4.10;;
9042;SDS011;4556;49.150;8.808;2022-08-02T02:50:12;4.73;;;3.80;;
9042;SDS011;4556;49.150;8.808;2022-08-02T02:52:41;5.43;;;3.67;;
9042;SDS011;4556;49.150;8.808;2022-08-02T02:55:09;5.23;;;3.70;;
9042;SDS011;4556;49.150;8.808;2022-08-02T02:57:37;4.17;;;3.60;;
9042;SDS011;4556;49.150;8.808;2022-08-02T03:00:07;6.03;;;4.03;;
9042;SDS011;4556;49.150;8.808;2022-08-02T03:02:36;4.90;;;3.47;;
9042;SDS011;4556;49.150;8.808;2022-08-02T03:05:05;4.10;;;3.50;;
9042;SDS011;4556;49.150;8.808;2022-08-02T03:07:35;5.20;;;3.77;;
9042;SDS011;4556;49.150;8.808;2022-08-02T03:10:04;5.40;;;3.87;;
9042;SDS011;4556;49.150;8.808;2022-08-02T03:12:32;6.00;;;4.07;;
9042;SDS011;4556;49.150;8.808;2022-08-02T03:15:00;4.63;;;3.67;;
9042;SDS011;4556;49.150;8.808;2022-08-02T03:17:36;5.97;;;4.17;;
9042;SDS011;4556;49.150;8.808;2022-08-02T03:20:06;4.70;;;4.20;;
9042;SDS011;4556;49.150;8.808;2022-08-02T03:22:37;4.33;;;3.90;;
9042;SDS011;4556;49.150;8.808;2022-08-02T03:25:04;4.87;;;4.07;;
9042;SDS011;4556;49.150;8.808;2022-08-02T03:27:32;4.37;;;3.97;;
9042;SDS011;4556;49.150;8.808;2022-08-02T03:30:00;5.13;;;4.10;;
9042;SDS011;4556;49.150;8.808;2022-08-02T03:32:27;4.77;;;4.23;;
9042;SDS011;4556;49.150;8.808;2022-08-02T03:34:54;5.57;;;4.03;;
9042;SDS011;4556;49.150;8.808;2022-08-02T03:37:22;6.33;;;3.90;;
9042;SDS011;4556;49.150;8.808;2022-08-02T03:39:54;5.10;;;4.60;;
9042;SDS011;4556;49.150;8.808;2022-08-02T03:42:23;4.90;;;4.40;;
9042;SDS011;4556;49.150;8.808;2022-08-02T03:44:51;5.50;;;3.97;;
9042;SDS011;4556;49.150;8.808;2022-08-02T03:47:20;5.07;;;4.03;;
9042;SDS011;4556;49.150;8.808;2022-08-02T03:49:48;5.97;;;3.80;;
9042;SDS011;4556;49.150;8.808;2022-08-02T03:52:17;5.17;;;3.37;;
9042;SDS011;4556;49.150;8.808;2022-08-02T03:54:45;4.97;;;3.97;;
9042;SDS011;4556;49.150;8.808;2022-08-02T03:57:14;5.37;;;4.43;;
9042;SDS011;4556;49.150;8.808;2022-08-02T03:59:42;5.63;;;4.00;;
9042;SDS011;4556;49.150;8.808;2022-08-02T04:02:11;5.60;;;3.90;;
9042;SDS011;4556;49.150;8.808;2022-08-02T04:04:39;4.63;;;3.77;;
9042;SDS011;4556;49.150;8.808;2022-08-02T04:07:06;5.07;;;3.77;;
9042;SDS011;4556;49.150;8.808;2022-08-02T04:09:33;4.23;;;3.77;;
9042;SDS011;4556;49.150;8.808;2022-08-02T04:12:01;5.27;;;4.67;;
9042;SDS011;4556;49.150;8.808;2022-08-02T04:14:29;6.53;;;4.00;;
9042;SDS011;4556;49.150;8.808;2022-08-02T04:16:58;4.53;;;3.50;;
9042;SDS011;4556;49.150;8.808;2022-08-02T04:19:29;7.97;;;3.87;;
9042;SDS011;4556;49.150;8.808;2022-08-02T04:21:59;4.20;;;3.60;;
9042;SDS011;4556;49.150;8.808;2022-08-02T04:24:30;5.30;;;3.90;;
9042;SDS011;4556;49.150;8.808;2022-08-02T04:27:03;4.73;;;4.23;;
9042;SDS011;4556;49.150;8.808;2022-08-02T04:29:33;4.40;;;4.00;;
9042;SDS011;4556;49.150;8.808;2022-08-02T04:32:02;4.97;;;4.20;;
9042;SDS011;4556;49.150;8.808;2022-08-02T04:34:30;5.43;;;4.10;;
9042;SDS011;4556;49.150;8.808;2022-08-02T04:36:58;8.23;;;4.50;;
9042;SDS011;4556;49.150;8.808;2022-08-02T04:39:26;5.57;;;4.80;;
9042;SDS011;4556;49.150;8.808;2022-08-02T04:41:54;6.90;;;4.87;;
9042;SDS011;4556;49.150;8.808;2022-08-02T04:44:21;5.63;;;4.10;;
9042;SDS011;4556;49.150;8.808;2022-08-02T04:46:51;4.73;;;4.23;;
9042;SDS011;4556;49.150;8.808;2022-08-02T04:49:20;6.10;;;4.27;;
9042;SDS011;4556;49.150;8.808;2022-08-02T04:51:47;5.00;;;4.30;;
9042;SDS011;4556;49.150;8.808;2022-08-02T04:54:14;4.57;;;4.17;;
9042;SDS011;4556;49.150;8.808;2022-08-02T04:56:41;4.77;;;4.20;;
9042;SDS011;4556;49.150;8.808;2022-08-02T04:59:09;4.67;;;4.13;;
9042;SDS011;4556;49.150;8.808;2022-08-02T05:01:36;4.37;;;3.93;;
9042;SDS011;4556;49.150;8.808;2022-08-02T05:04:08;4.13;;;3.70;;
9042;SDS011;4556;49.150;8.808;2022-08-02T05:06:35;4.13;;;3.70;;
9042;SDS011;4556;49.150;8.808;2022-08-02T05:09:02;6.83;;;3.60;;
9042;SDS011;4556;49.150;8.808;2022-08-02T05:11:30;5.70;;;4.13;;
9042;SDS011;4556;49.150;8.808;2022-08-02T05:13:57;4.93;;;4.10;;
9042;SDS011;4556;49.150;8.808;2022-08-02T05:16:24;6.07;;;4.17;;
9042;SDS011;4556;49.150;8.808;2022-08-02T05:18:52;4.53;;;4.07;;
9042;SDS011;4556;49.150;8.808;2022-08-02T05:21:21;4.93;;;4.07;;
9042;SDS011;4556;49.150;8.808;2022-08-02T05:23:48;6.30;;;4.37;;
9042;SDS011;4556;49.150;8.808;2022-08-02T05:26:15;4.10;;;3.80;;
9042;SDS011;4556;49.150;8.808;2022-08-02T05:28:42;5.80;;;4.17;;
9042;SDS011;4556;49.150;8.808;2022-08-02T05:31:10;5.83;;;4.30;;
9042;SDS011;4556;49.150;8.808;2022-08-02T05:33:37;5.47;;;4.33;;
9042;SDS011;4556;49.150;8.808;2022-08-02T05:36:04;8.33;;;4.47;;
9042;SDS011;4556;49.150;8.808;2022-08-02T05:38:35;8.27;;;3.90;;
9042;SDS011;4556;49.150;8.808;2022-08-02T05:41:02;4.10;;;3.73;;
9042;SDS011;4556;49.150;8.808;2022-08-02T05:43:29;5.63;;;3.90;;
9042;SDS011;4556;49.150;8.808;2022-08-02T05:45:56;6.20;;;4.43;;
9042;SDS011;4556;49.150;8.808;2022-08-02T05:48:23;4.73;;;4.23;;
9042;SDS011;4556;49.150;8.808;2022-08-02T05:50:53;5.23;;;4.37;;
9042;SDS011;4556;49.150;8.808;2022-08-02T05:53:27;5.97;;;3.97;;
9042;SDS011;4556;49.150;8.808;2022-08-02T05:56:08;5.07;;;4.20;;
9042;SDS011;4556;49.150;8.808;2022-08-02T05:58:46;4.37;;;3.90;;
9042;SDS011;4556;49.150;8.808;2022-08-02T06:01:20;4.50;;;4.10;;
9042;SDS011;4556;49.150;8.808;2022-08-02T06:03:52;4.57;;;3.90;;
9042;SDS011;4556;49.150;8.808;2022-08-02T06:06:22;5.77;;;3.30;;
9042;SDS011;4556;49.150;8.808;2022-08-02T06:08:54;4.53;;;3.70;;
9042;SDS011;4556;49.150;8.808;2022-08-02T06:11:31;4.20;;;3.80;;
9042;SDS011;4556;49.150;8.808;2022-08-02T06:14:02;6.50;;;4.10;;
9042;SDS011;4556;49.150;8.808;2022-08-02T06:16:30;3.97;;;3.43;;
9042;SDS011;4556;49.150;8.808;2022-08-02T06:18:57;6.47;;;3.60;;
9042;SDS011;4556;49.150;8.808;2022-08-02T06:21:25;4.83;;;3.60;;
9042;SDS011;4556;49.150;8.808;2022-08-02T06:23:53;4.97;;;3.30;;
9042;SDS011;4556;49.150;8.808;2022-08-02T06:26:23;3.57;;;3.23;;
9042;SDS011;4556;49.150;8.808;2022-08-02T06:28:52;3.73;;;3.33;;
9042;SDS011;4556;49.150;8.808;2022-08-02T06:31:20;5.67;;;3.37;;
9042;SDS011;4556;49.150;8.808;2022-08-02T06:33:48;6.10;;;3.17;;
9042;SDS011;4556;49.150;8.808;2022-08-02T06:36:16;3.87;;;2.87;;
9042;SDS011;4556;49.150;8.808;2022-08-02T06:38:52;5.40;;;2.97;;
9042;SDS011;4556;49.150;8.808;2022-08-02T06:41:23;5.07;;;3.30;;
9042;SDS011;4556;49.150;8.808;2022-08-02T06:43:54;3.57;;;3.07;;
9042;SDS011;4556;49.150;8.808;2022-08-02T06:46:25;3.30;;;3.00;;
9042;SDS011;4556;49.150;8.808;2022-08-02T06:48:53;4.00;;;3.60;;
9042;SDS011;4556;49.150;8.808;2022-08-02T06:51:21;3.97;;;3.17;;
9042;SDS011;4556;49.150;8.808;2022-08-02T06:53:48;4.00;;;3.60;;
9042;SDS011;4556;49.150;8.808;2022-08-02T06:56:15;4.77;;;3.30;;
9042;SDS011;4556;49.150;8.808;2022-08-02T06:58:43;4.00;;;2.57;;
9042;SDS011;4556;49.150;8.808;2022-08-02T07:01:11;4.80;;;3.20;;
9042;SDS011;4556;49.150;8.808;2022-08-02T07:03:39;2.60;;;2.37;;
9042;SDS011;4556;49.150;8.808;2022-08-02T07:06:07;2.90;;;2.60;;
9042;SDS011;4556;49.150;8.808;2022-08-02T07:08:34;4.40;;;2.50;;
9042;SDS011;4556;49.150;8.808;2022-08-02T07:11:02;6.47;;;2.70;;
9042;SDS011;4556;49.150;8.808;2022-08-02T07:13:30;3.00;;;2.70;;
9042;SDS011;4556;49.150;8.808;2022-08-02T07:15:57;3.10;;;2.80;;
9042;SDS011;4556;49.150;8.808;2022-08-02T07:18:27;2.70;;;2.50;;
9042;SDS011;4556;49.150;8.808;2022-08-02T07:20:54;2.70;;;2.47;;
9042;SDS011;4556;49.150;8.808;2022-08-02T07:23:21;3.27;;;2.10;;
9042;SDS011;4556;49.150;8.808;2022-08-02T07:25:48;2.47;;;2.27;;
9042;SDS011;4556;49.150;8.808;2022-08-02T07:28:16;2.90;;;2.03;;
9042;SDS011;4556;49.150;8.808;2022-08-02T07:30:43;2.43;;;2.10;;
9042;SDS011;4556;49.150;8.808;2022-08-02T07:33:10;2.83;;;2.03;;
9042;SDS011;4556;49.150;8.808;2022-08-02T07:35:39;3.73;;;2.20;;
9042;SDS011;4556;49.150;8.808;2022-08-02T07:38:06;2.40;;;2.20;;
9042;SDS011;4556;49.150;8.808;2022-08-02T07:40:34;2.10;;;1.90;;
9042;SDS011;4556;49.150;8.808;2022-08-02T07:43:01;2.43;;;2.17;;
9042;SDS011;4556;49.150;8.808;2022-08-02T07:45:29;2.37;;;1.97;;
9042;SDS011;4556;49.150;8.808;2022-08-02T07:47:57;2.03;;;1.87;;
9042;SDS011;4556;49.150;8.808;2022-08-02T07:50:24;3.47;;;2.13;;
9042;SDS011;4556;49.150;8.808;2022-08-02T07:52:54;2.20;;;2.00;;
9042;SDS011;4556;49.150;8.808;2022-08-02T07:55:21;4.13;;;2.03;;
9042;SDS011;4556;49.150;8.808;2022-08-02T07:57:48;2.20;;;2.00;;
9042;SDS011;4556;49.150;8.808;2022-08-02T08:00:16;3.73;;;2.20;;
9042;SDS011;4556;49.150;8.808;2022-08-02T08:02:44;2.43;;;2.10;;
9042;SDS011;4556;49.150;8.808;2022-08-02T08:05:11;2.10;;;1.90;;
9042;SDS011;4556;49.150;8.808;2022-08-02T08:07:39;2.23;;;1.80;;
9042;SDS011;4556;49.150;8.808;2022-08-02T08:10:09;2.00;;;1.80;;
9042;SDS011;4556;49.150;8.808;2022-08-02T08:12:36;2.37;;;2.10;;
9042;SDS011;4556;49.150;8.808;2022-08-02T08:15:04;2.20;;;2.00;;
9042;SDS011;4556;49.150;8.808;2022-08-02T08:17:32;2.57;;;1.80;;
9042;SDS011;4556;49.150;8.808;2022-08-02T08:20:03;3.40;;;2.03;;
9042;SDS011;4556;49.150;8.808;2022-08-02T08:22:33;3.57;;;2.07;;
9042;SDS011;4556;49.150;8.808;2022-08-02T08:25:00;2.30;;;2.10;;
9042;SDS011;4556;49.150;8.808;2022-08-02T08:27:29;3.13;;;2.20;;
9042;SDS011;4556;49.150;8.808;2022-08-02T08:29:56;2.57;;;1.87;;
9042;SDS011;4556;49.150;8.808;2022-08-02T08:32:23;2.17;;;1.87;;
9042;SDS011;4556;49.150;8.808;2022-08-02T08:34:51;2.07;;;1.83;;
9042;SDS011;4556;49.150;8.808;2022-08-02T08:37:18;1.77;;;1.60;;
9042;SDS011;4556;49.150;8.808;2022-08-02T08:39:45;1.90;;;1.80;;
9042;SDS011;4556;49.150;8.808;2022-08-02T08:42:12;2.17;;;2.00;;
9042;SDS011;4556;49.150;8.808;2022-08-02T08:44:41;2.15;;;1.70;;
9042;SDS011;4556;49.150;8.808;2022-08-02T08:47:09;2.87;;;1.67;;
9042;SDS011;4556;49.150;8.808;2022-08-02T08:49:39;2.40;;;1.87;;
9042;SDS011;4556;49.150;8.808;2022-08-02T08:52:07;2.20;;;2.00;;
9042;SDS011;4556;49.150;8.808;2022-08-02T08:54:37;1.97;;;1.77;;
9042;SDS011;4556;49.150;8.808;2022-08-02T08:57:06;2.00;;;1.73;;
9042;SDS011;4556;49.150;8.808;2022-08-02T08:59:34;3.05;;;2.10;;
9042;SDS011;4556;49.150;8.808;2022-08-02T09:02:03;2.47;;;1.60;;
9042;SDS011;4556;49.150;8.808;2022-08-02T09:04:30;2.80;;;1.90;;
9042;SDS011;4556;49.150;8.808;2022-08-02T09:06:58;4.10;;;2.10;;
9042;SDS011;4556;49.150;8.808;2022-08-02T09:09:26;2.10;;;2.00;;
9042;SDS011;4556;49.150;8.808;2022-08-02T09:11:53;2.15;;;1.95;;
9042;SDS011;4556;49.150;8.808;2022-08-02T09:14:38;2.00;;;1.75;;
9042;SDS011;4556;49.150;8.808;2022-08-02T09:17:07;2.30;;;1.80;;
9042;SDS011;4556;49.150;8.808;2022-08-02T09:19:36;4.28;;;1.80;;
9042;SDS011;4556;49.150;8.808;2022-08-02T09:22:05;2.13;;;1.70;;
9042;SDS011;4556;49.150;8.808;2022-08-02T09:24:40;2.10;;;1.70;;
9042;SDS011;4556;49.150;8.808;2022-08-02T09:27:09;1.80;;;1.60;;
9042;SDS011;4556;49.150;8.808;2022-08-02T09:29:38;2.13;;;1.83;;
9042;SDS011;4556;49.150;8.808;2022-08-02T09:32:07;1.83;;;1.55;;
9042;SDS011;4556;49.150;8.808;2022-08-02T09:34:44;3.77;;;1.60;;
9042;SDS011;4556;49.150;8.808;2022-08-02T09:37:25;1.77;;;1.67;;
9042;SDS011;4556;49.150;8.808;2022-08-02T09:39:53;1.88;;;1.60;;
9042;SDS011;4556;49.150;8.808;2022-08-02T09:42:21;2.20;;;2.00;;
9042;SDS011;4556;49.150;8.808;2022-08-02T09:44:51;2.33;;;1.70;;
9042;SDS011;4556;49.150;8.808;2022-08-02T09:47:21;16.63;;;2.15;;
9042;SDS011;4556;49.150;8.808;2022-08-02T09:49:49;4.35;;;1.67;;
9042;SDS011;4556;49.150;8.808;2022-08-02T09:52:20;3.15;;;2.05;;
9042;SDS011;4556;49.150;8.808;2022-08-02T09:54:49;4.15;;;2.00;;
9042;SDS011;4556;49.150;8.808;2022-08-02T09:57:23;1.95;;;1.70;;
9042;SDS011;4556;49.150;8.808;2022-08-02T09:59:52;3.25;;;1.80;;
9042;SDS011;4556;49.150;8.808;2022-08-02T10:02:22;2.30;;;1.75;;
9042;SDS011;4556;49.150;8.808;2022-08-02T10:04:50;2.50;;;1.50;;
9042;SDS011;4556;49.150;8.808;2022-08-02T10:07:17;2.75;;;1.73;;
9042;SDS011;4556;49.150;8.808;2022-08-02T10:09:45;4.65;;;1.60;;
9042;SDS011;4556;49.150;8.808;2022-08-02T10:12:13;2.13;;;1.70;;
9042;SDS011;4556;49.150;8.808;2022-08-02T10:14:40;1.70;;;1.60;;
9042;SDS011;4556;49.150;8.808;2022-08-02T10:17:08;1.77;;;1.60;;
9042;SDS011;4556;49.150;8.808;2022-08-02T10:19:37;2.42;;;1.50;;
9042;SDS011;4556;49.150;8.808;2022-08-02T10:22:05;3.42;;;1.50;;
9042;SDS011;4556;49.150;8.808;2022-08-02T10:24:37;3.83;;;2.20;;
9042;SDS011;4556;49.150;8.808;2022-08-02T10:27:06;1.73;;;1.63;;
9042;SDS011;4556;49.150;8.808;2022-08-02T10:29:40;1.92;;;1.63;;
9042;SDS011;4556;49.150;8.808;2022-08-02T10:32:09;2.10;;;1.70;;
9042;SDS011;4556;49.150;8.808;2022-08-02T10:34:42;2.00;;;1.58;;
9042;SDS011;4556;49.150;8.808;2022-08-02T10:37:12;2.17;;;1.77;;
9042;SDS011;4556;49.150;8.808;2022-08-02T10:39:42;1.60;;;1.50;;
9042;SDS011;4556;49.150;8.808;2022-08-02T10:42:12;3.22;;;1.73;;
9042;SDS011;4556;49.150;8.808;2022-08-02T10:45:08;2.53;;;1.80;;
9042;SDS011;4556;49.150;8.808;2022-08-02T10:47:39;2.75;;;1.88;;
9042;SDS011;4556;49.150;8.808;2022-08-02T10:53:19;1.60;;;1.50;;
9042;SDS011;4556;49.150;8.808;2022-08-02T10:55:48;3.40;;;1.60;;
9042;SDS011;4556;49.150;8.808;2022-08-02T10:58:15;1.40;;;1.30;;
9042;SDS011;4556;49.150;8.808;2022-08-02T11:00:45;3.55;;;1.70;;
9042;SDS011;4556;49.150;8.808;2022-08-02T11:06:00;2.08;;;1.40;;
9042;SDS011;4556;49.150;8.808;2022-08-02T11:08:28;1.90;;;1.58;;
9042;SDS011;4556;49.150;8.808;2022-08-02T11:10:59;2.35;;;1.52;;
9042;SDS011;4556;49.150;8.808;2022-08-02T11:13:27;1.80;;;1.70;;
9042;SDS011;4556;49.150;8.808;2022-08-02T11:15:56;1.60;;;1.50;;
9042;SDS011;4556;49.150;8.808;2022-08-02T11:21:31;3.45;;;1.75;;
9042;SDS011;4556;49.150;8.808;2022-08-02T11:26:53;1.73;;;1.35;;
9042;SDS011;4556;49.150;8.808;2022-08-02T11:29:21;1.48;;;1.27;;
9042;SDS011;4556;49.150;8.808;2022-08-02T11:32:00;1.50;;;1.40;;
9042;SDS011;4556;49.150;8.808;2022-08-02T11:34:27;3.58;;;1.48;;
9042;SDS011;4556;49.150;8.808;2022-08-02T11:36:56;3.78;;;1.40;;
9042;SDS011;4556;49.150;8.808;2022-08-02T11:39:23;2.40;;;1.33;;
9042;SDS011;4556;49.150;8.808;2022-08-02T11:41:52;1.80;;;1.33;;
9042;SDS011;4556;49.150;8.808;2022-08-02T11:44:21;1.55;;;1.45;;
9042;SDS011;4556;49.150;8.808;2022-08-02T11:46:55;2.30;;;1.60;;
9042;SDS011;4556;49.150;8.808;2022-08-02T11:49:25;1.30;;;1.20;;
9042;SDS011;4556;49.150;8.808;2022-08-02T11:51:54;1.40;;;1.30;;
9042;SDS011;4556;49.150;8.808;2022-08-02T11:54:25;1.60;;;1.40;;
9042;SDS011;4556;49.150;8.808;2022-08-02T11:57:12;2.80;;;1.33;;
9042;SDS011;4556;49.150;8.808;2022-08-02T11:59:41;4.15;;;1.55;;
9042;SDS011;4556;49.150;8.808;2022-08-02T12:02:10;2.15;;;1.17;;
9042;SDS011;4556;49.150;8.808;2022-08-02T12:04:39;1.13;;;1.02;;
9042;SDS011;4556;49.150;8.808;2022-08-02T12:07:07;2.65;;;1.40;;
9042;SDS011;4556;49.150;8.808;2022-08-02T12:09:35;1.98;;;1.40;;
9042;SDS011;4556;49.150;8.808;2022-08-02T12:12:03;1.15;;;1.08;;
9042;SDS011;4556;49.150;8.808;2022-08-02T12:14:30;1.08;;;0.98;;
9042;SDS011;4556;49.150;8.808;2022-08-02T12:16:58;1.85;;;1.50;;
9042;SDS011;4556;49.150;8.808;2022-08-02T12:19:45;1.20;;;1.10;;
9042;SDS011;4556;49.150;8.808;2022-08-02T12:22:15;1.67;;;1.20;;
9042;SDS011;4556;49.150;8.808;2022-08-02T12:24:45;1.10;;;1.00;;
9042;SDS011;4556;49.150;8.808;2022-08-02T12:30:06;2.05;;;1.20;;
9042;SDS011;4556;49.150;8.808;2022-08-02T12:32:34;1.50;;;1.38;;
9042;SDS011;4556;49.150;8.808;2022-08-02T12:35:08;1.70;;;1.20;;
9042;SDS011;4556;49.150;8.808;2022-08-02T12:37:37;1.30;;;1.20;;
9042;SDS011;4556;49.150;8.808;2022-08-02T12:40:18;1.60;;;1.30;;
9042;SDS011;4556;49.150;8.808;2022-08-02T12:42:48;1.50;;;1.20;;
9042;SDS011;4556;49.150;8.808;2022-08-02T12:45:17;1.42;;;1.20;;
9042;SDS011;4556;49.150;8.808;2022-08-02T12:47:45;1.98;;;1.05;;
9042;SDS011;4556;49.150;8.808;2022-08-02T12:50:16;2.47;;;1.30;;
9042;SDS011;4556;49.150;8.808;2022-08-02T12:52:48;2.60;;;1.33;;
9042;SDS011;4556;49.150;8.808;2022-08-02T12:55:16;1.20;;;1.10;;
9042;SDS011;4556;49.150;8.808;2022-08-02T12:57:56;2.95;;;1.48;;
9042;SDS011;4556;49.150;8.808;2022-08-02T13:00:25;1.30;;;1.20;;
9042;SDS011;4556;49.150;8.808;2022-08-02T13:02:55;1.27;;;1.00;;
9042;SDS011;4556;49.150;8.808;2022-08-02T13:05:25;1.60;;;1.30;;
9042;SDS011;4556;49.150;8.808;2022-08-02T13:07:54;1.85;;;1.42;;
9042;SDS011;4556;49.150;8.808;2022-08-02T13:10:22;1.75;;;1.20;;
9042;SDS011;4556;49.150;8.808;2022-08-02T13:12:50;1.20;;;1.10;;
9042;SDS011;4556;49.150;8.808;2022-08-02T13:15:18;1.10;;;1.00;;
9042;SDS011;4556;49.150;8.808;2022-08-02T13:17:47;2.17;;;1.17;;
9042;SDS011;4556;49.150;8.808;2022-08-02T13:20:14;1.50;;;1.08;;
9042;SDS011;4556;49.150;8.808;2022-08-02T13:22:43;1.88;;;1.23;;
9042;SDS011;4556;49.150;8.808;2022-08-02T13:25:10;1.13;;;1.02;;
9042;SDS011;4556;49.150;8.808;2022-08-02T13:27:38;2.08;;;1.10;;
9042;SDS011;4556;49.150;8.808;2022-08-02T13:30:05;1.40;;;0.95;;
9042;SDS011;4556;49.150;8.808;2022-08-02T13:32:33;5.40;;;1.30;;
9042;SDS011;4556;49.150;8.808;2022-08-02T13:35:00;1.58;;;1.00;;
9042;SDS011;4556;49.150;8.808;2022-08-02T13:37:28;1.40;;;1.17;;
9042;SDS011;4556;49.150;8.808;2022-08-02T13:39:56;1.33;;;1.13;;
9042;SDS011;4556;49.150;8.808;2022-08-02T13:42:24;2.03;;;1.08;;
9042;SDS011;4556;49.150;8.808;2022-08-02T13:44:51;1.63;;;1.10;;
9042;SDS011;4556;49.150;8.808;2022-08-02T13:47:18;1.17;;;1.00;;
9042;SDS011;4556;49.150;8.808;2022-08-02T13:49:45;1.60;;;1.05;;
9042;SDS011;4556;49.150;8.808;2022-08-02T13:52:14;1.20;;;1.10;;
9042;SDS011;4556;49.150;8.808;2022-08-02T13:54:42;1.50;;;1.23;;
9042;SDS011;4556;49.150;8.808;2022-08-02T13:57:11;1.23;;;1.00;;
9042;SDS011;4556;49.150;8.808;2022-08-02T13:59:38;1.80;;;1.17;;
9042;SDS011;4556;49.150;8.808;2022-08-02T14:02:05;0.82;;;0.82;;
9042;SDS011;4556;49.150;8.808;2022-08-02T14:04:33;1.02;;;1.00;;
9042;SDS011;4556;49.150;8.808;2022-08-02T14:07:02;1.42;;;1.00;;
9042;SDS011;4556;49.150;8.808;2022-08-02T14:09:29;1.75;;;1.10;;
9042;SDS011;4556;49.150;8.808;2022-08-02T14:11:57;1.10;;;1.00;;
9042;SDS011;4556;49.150;8.808;2022-08-02T14:14:26;2.20;;;0.98;;
9042;SDS011;4556;49.150;8.808;2022-08-02T14:16:53;2.85;;;1.10;;
9042;SDS011;4556;49.150;8.808;2022-08-02T14:19:21;1.17;;;1.08;;
9042;SDS011;4556;49.150;8.808;2022-08-02T14:21:49;1.10;;;1.00;;
9042;SDS011;4556;49.150;8.808;2022-08-02T14:24:17;1.38;;;1.08;;
9042;SDS011;4556;49.150;8.808;2022-08-02T14:26:46;1.25;;;1.15;;
9042;SDS011;4556;49.150;8.808;2022-08-02T14:29:16;2.33;;;1.33;;
9042;SDS011;4556;49.150;8.808;2022-08-02T14:31:45;2.03;;;1.20;;
9042;SDS011;4556;49.150;8.808;2022-08-02T14:34:12;1.58;;;1.17;;
9042;SDS011;4556;49.150;8.808;2022-08-02T14:36:39;2.15;;;1.00;;
9042;SDS011;4556;49.150;8.808;2022-08-02T14:39:06;1.08;;;1.00;;
9042;SDS011;4556;49.150;8.808;2022-08-02T14:41:33;1.10;;;1.00;;
9042;SDS011;4556;49.150;8.808;2022-08-02T14:44:01;1.95;;;1.30;;
9042;SDS011;4556;49.150;8.808;2022-08-02T14:46:29;1.80;;;1.20;;
9042;SDS011;4556;49.150;8.808;2022-08-02T14:48:58;1.13;;;1.02;;
9042;SDS011;4556;49.150;8.808;2022-08-02T14:51:28;1.58;;;1.48;;
9042;SDS011;4556;49.150;8.808;2022-08-02T14:53:56;1.40;;;1.15;;
9042;SDS011;4556;49.150;8.808;2022-08-02T14:56:23;1.90;;;1.40;;
9042;SDS011;4556;49.150;8.808;2022-08-02T14:58:50;1.23;;;1.05;;
9042;SDS011;4556;49.150;8.808;2022-08-02T15:01:18;1.40;;;1.23;;
9042;SDS011;4556;49.150;8.808;2022-08-02T15:03:45;1.25;;;1.13;;
9042;SDS011;4556;49.150;8.808;2022-08-02T15:06:14;1.08;;;1.00;;
9042;SDS011;4556;49.150;8.808;2022-08-02T15:08:41;1.65;;;1.25;;
9042;SDS011;4556;49.150;8.808;2022-08-02T15:11:09;2.10;;;1.10;;
9042;SDS011;4556;49.150;8.808;2022-08-02T15:13:36;1.88;;;1.25;;
9042;SDS011;4556;49.150;8.808;2022-08-02T15:16:03;1.30;;;1.20;;
9042;SDS011;4556;49.150;8.808;2022-08-02T15:18:31;2.80;;;1.10;;
9042;SDS011;4556;49.150;8.808;2022-08-02T15:20:58;1.25;;;1.10;;
9042;SDS011;4556;49.150;8.808;2022-08-02T15:23:27;1.65;;;1.27;;
9042;SDS011;4556;49.150;8.808;2022-08-02T15:25:55;1.58;;;1.25;;
9042;SDS011;4556;49.150;8.808;2022-08-02T15:28:22;3.75;;;1.40;;
9042;SDS011;4556;49.150;8.808;2022-08-02T15:30:53;1.25;;;1.15;;
9042;SDS011;4556;49.150;8.808;2022-08-02T15:33:20;1.48;;;1.27;;
9042;SDS011;4556;49.150;8.808;2022-08-02T15:35:47;2.35;;;1.40;;
9042;SDS011;4556;49.150;8.808;2022-08-02T15:38:14;1.30;;;1.20;;
9042;SDS011;4556;49.150;8.808;2022-08-02T15:40:43;1.00;;;1.00;;